Latest Weather Observations for Albury

IDN60801

Issued at 5:32 pm EST Sunday 19 April 2015 (issued every 30 minutes, with the page automatically refreshed every 10 minutes)

About weather observations | Map of weather stations | Latest weather observations for NSW | Other Formats
Station Details ID: 072160 Name: ALBURY AIRPORT AWS Lat: -36.07 Lon: 146.95 Height: 163.5 m
Data from the previous 72 hours. | See also: Recent months at Albury
Date/Time
EST
Temp
°C
App
Temp
°C
Dew
Point
Rel
Hum
%
Delta-T
°C
Wind Press
QNH
hPa
Press
MSL
hPa
Rain
since 9 am
mm
Dir
 
Spd
km/h
Gust
km/h
Spd
kts
Gust
kts
19/05:30pm 13.7 11.1 6.1 60 3.6 E 9 13 5 7 1025.4 1025.3 0.2
19/05:00pm 14.6 11.5 5.7 55 4.2 SSE 11 15 6 8 1024.9 1024.7 0.2
19/04:30pm 15.0 10.9 6.0 55 4.4 SSW 17 22 9 12 1024.5 1024.3 0.2
19/04:00pm 16.1 11.7 4.5 46 5.5 SE 17 22 9 12 1024.0 1023.8 0.2
19/03:30pm 16.3 12.5 5.6 49 5.2 SE 15 22 8 12 1023.5 1023.3 0.2
19/03:00pm 15.8 10.9 5.1 49 5.1 SSE 20 30 11 16 1023.3 1023.1 0.2
19/02:30pm 17.1 13.3 6.0 48 5.5 ESE 15 20 8 11 1023.0 1022.8 0.2
19/02:00pm 15.9 11.7 5.5 50 5.0 SE 17 24 9 13 1022.8 1022.6 0.2
19/01:30pm 16.0 11.9 6.4 53 4.7 SE 17 22 9 12 1022.7 1022.5 0.0
19/01:00pm 15.2 12.0 7.0 58 4.0 SE 13 20 7 11 1022.8 1022.6 0.0
19/12:30pm 15.7 12.7 7.7 59 4.0 SE 13 19 7 10 1022.7 1022.5 0.0
19/12:00pm 14.7 10.6 8.0 64 3.4 SSE 19 24 10 13 1022.6 1022.4 0.0
19/11:30am 15.8 13.3 8.1 60 3.9 SSE 11 17 6 9 1022.5 1022.3 0.0
19/11:00am 14.7 11.1 8.2 65 3.3 S 17 22 9 12 1022.4 1022.2 0.0
19/10:30am 14.3 11.5 8.5 68 2.9 SSW 13 20 7 11 1022.0 1021.9 0.0
19/10:00am 13.7 10.7 7.9 68 2.9 WSW 13 19 7 10 1021.8 1021.7 0.0
19/09:30am 13.7 9.4 7.9 68 2.9 W 20 30 11 16 1021.5 1021.4 0.0
19/09:00am 12.6 8.2 7.5 71 2.5 W 20 26 11 14 1021.2 1021.1 15.8
19/08:30am 11.7 7.0 7.6 76 2.0 W 22 30 12 16 1020.7 1020.6 15.8
19/08:00am 11.0 5.6 7.9 81 1.5 W 26 32 14 17 1020.1 1019.9 15.8
19/07:30am 10.4 7.0 7.8 84 1.3 W 15 24 8 13 1019.7 1019.5 15.8
19/07:00am 10.2 6.5 8.0 86 1.1 W 17 26 9 14 1019.0 1018.8 15.8
19/06:30am 10.4 6.4 8.3 87 1.0 WNW 19 28 10 15 1018.5 1018.3 15.8
19/05:38am 11.3 7.8 10.2 93 0.6 WNW 19 28 10 15 1017.6 1017.4 15.8
19/05:30am 11.5 7.9 10.4 93 0.6 WNW 20 28 11 15 1017.6 1017.4 15.8
19/05:00am 12.5 9.3 11.4 93 0.6 W 19 28 10 15 1017.1 1016.9 15.8
19/04:30am 13.0 12.6 13.0 100 0.0 NW 7 11 4 6 1016.8 1016.6 15.8
19/04:16am 12.9 13.4 12.9 100 0.0 NW 2 7 1 4 1016.6 1016.4 15.8
19/04:00am 12.9 13.4 12.9 100 0.0 NW 2 6 1 3 1016.3 1016.1 15.8
19/03:56am 12.9 13.1 12.9 100 0.0 NW 4 7 2 4 1016.4 1016.2 15.8
19/03:37am 12.9 12.1 12.9 100 0.0 NNW 9 11 5 6 1016.5 1016.3 15.6
19/03:30am 12.9 12.5 12.9 100 0.0 N 7 9 4 5 1016.5 1016.3 15.6
19/03:04am 12.8 12.5 12.8 100 0.0 N 6 9 3 5 1016.4 1016.2 15.4
19/03:00am 12.8 12.9 12.8 100 0.0 N 4 7 2 4 1016.4 1016.2 15.4
19/02:38am 12.3 13.0 12.3 100 0.0 CALM 0 0 0 0 1016.6 1016.4 15.2
19/02:30am 12.2 12.9 12.2 100 0.0 CALM 0 0 0 0 1016.5 1016.3 15.2
19/02:00am 11.9 12.5 11.9 100 0.0 CALM 0 0 0 0 1016.7 1016.5 15.2
19/01:30am 11.7 12.2 11.7 100 0.0 CALM 0 0 0 0 1016.8 1016.6 15.2
19/01:00am 11.4 11.1 11.4 100 0.0 ENE 4 6 2 3 1016.8 1016.6 15.2
19/12:44am 11.2 10.4 11.2 100 0.0 ENE 6 7 3 4 1016.9 1016.7 15.2
19/12:30am 10.6 9.7 10.6 100 0.0 ENE 6 7 3 4 1016.9 1016.7 15.2
19/12:25am 10.5 9.6 10.5 100 0.0 ENE 6 7 3 4 1016.9 1016.7 15.2
19/12:00am 11.2 11.2 11.2 100 0.0 NNE 2 7 1 4 1016.8 1016.6 15.2
 
Date/Time
EST
Temp
°C
App
Temp
°C
Dew
Point
Rel
Hum
%
Delta-T
°C
Wind Press
QNH
hPa
Press
MSL
hPa
Rain
since 9 am
mm
Dir
 
Spd
km/h
Gust
km/h
Spd
kts
Gust
kts
18/11:30pm 10.7 9.8 10.5 99 0.1 NNW 6 9 3 5 1016.6 1016.4 15.2
18/11:00pm 11.4 11.0 11.2 99 0.1 N 4 7 2 4 1016.6 1016.4 15.2
18/10:53pm 11.8 11.2 11.8 100 0.0 N 6 7 3 4 1016.6 1016.4 15.2
18/10:33pm 11.6 12.0 11.3 98 0.2 CALM 0 0 0 0 1016.7 1016.5 15.2
18/10:30pm 11.8 12.2 11.3 97 0.3 CALM 0 2 0 1 1016.7 1016.5 15.2
18/10:00pm 12.3 11.5 11.7 96 0.3 NNE 7 9 4 5 1016.6 1016.4 15.2
18/09:30pm 13.5 13.6 12.6 94 0.5 WSW 4 9 2 5 1016.3 1016.1 15.2
18/09:00pm 14.0 12.7 12.6 91 0.8 WNW 11 17 6 9 1016.4 1016.2 15.2
18/08:30pm 14.6 13.1 13.1 91 0.8 WNW 13 19 7 10 1015.9 1015.7 15.2
18/08:24pm 14.7 12.5 13.2 91 0.8 WNW 17 20 9 11 1015.8 1015.6 15.2
18/08:04pm 15.2 12.6 13.7 91 0.8 WNW 20 28 11 15 1015.4 1015.3 15.2
18/08:00pm 15.2 12.6 13.7 91 0.8 WNW 20 26 11 14 1015.3 1015.2 15.2
18/07:42pm 15.4 12.0 13.6 89 1.0 WNW 24 35 13 19 1015.1 1015.0 15.2
18/07:30pm 15.6 12.6 13.8 89 1.0 WNW 22 28 12 15 1014.9 1014.7 15.2
18/07:27pm 15.7 13.1 13.7 88 1.1 WNW 20 28 11 15 1014.9 1014.7 15.2
18/07:20pm 15.8 13.5 14.2 90 0.9 WNW 19 24 10 13 1014.8 1014.6 15.2
18/07:00pm 16.1 15.3 15.1 94 0.6 WNW 13 17 7 9 1014.2 1014.0 15.2
18/06:57pm 16.1 15.3 15.1 94 0.6 W 13 17 7 9 1014.1 1013.9 15.2
18/06:33pm 16.4 14.8 14.9 91 0.9 WNW 17 22 9 12 1013.8 1013.6 15.2
18/06:30pm 16.4 14.8 14.9 91 0.9 WNW 17 22 9 12 1013.7 1013.5 15.2
18/06:00pm 16.6 15.2 15.6 94 0.6 WNW 17 20 9 11 1013.3 1013.1 15.2
18/05:30pm 16.7 15.7 15.7 94 0.6 WNW 15 19 8 10 1013.2 1013.0 15.2
18/05:00pm 16.9 17.0 16.6 98 0.2 WNW 11 15 6 8 1012.8 1012.6 15.2
18/04:54pm 16.9 17.4 16.6 98 0.2 WNW 9 13 5 7 1012.8 1012.6 15.2
18/04:30pm 17.0 16.3 16.5 97 0.3 WNW 15 20 8 11 1013.0 1012.8 15.2
18/04:00pm 17.2 16.6 16.7 97 0.3 WNW 15 20 8 11 1012.7 1012.5 15.2
18/03:32pm 17.1 17.7 16.8 98 0.2 NW 9 11 5 6 1012.4 1012.2 15.2
18/03:30pm 17.1 17.7 16.8 98 0.2 NW 9 11 5 6 1012.4 1012.2 15.2
18/03:00pm 17.2 17.1 16.9 98 0.2 WNW 13 19 7 10 1012.5 1012.3 14.6
18/02:59pm 17.2 17.1 16.9 98 0.2 WNW 13 19 7 10 1012.5 1012.3 14.6
18/02:30pm 17.3 18.0 17.1 99 0.1 W 9 15 5 8 1012.5 1012.3 14.2
18/02:00pm 17.3 18.1 17.3 100 0.0 N 9 17 5 9 1012.8 1012.6 13.2
18/01:59pm 17.3 18.5 17.3 100 0.0 N 7 15 4 8 1012.6 1012.4 13.2
18/01:44pm 17.1 17.7 16.9 99 0.1 N 9 13 5 7 1012.8 1012.6 12.6
18/01:36pm 17.1 17.7 16.9 99 0.1 NNW 9 15 5 8 1012.7 1012.5 11.6
18/01:30pm 17.1 17.7 16.8 98 0.2 NW 9 19 5 10 1012.7 1012.5 11.0
18/01:01pm 18.6 17.4 17.1 91 0.9 N 19 32 10 17 1012.5 1012.3 4.6
18/01:00pm 18.7 17.6 17.2 91 0.9 N 19 32 10 17 1012.5 1012.3 4.4
18/12:30pm 19.7 19.1 17.5 87 1.4 N 17 24 9 13 1013.1 1012.9 3.0
18/12:00pm 18.8 18.6 16.6 87 1.3 NNE 13 17 7 9 1013.8 1013.6 3.0
18/11:30am 18.4 17.8 16.7 90 1.0 NNE 15 24 8 13 1014.3 1014.1 3.0
18/11:00am 18.3 17.8 17.0 92 0.8 NNE 15 24 8 13 1014.9 1014.7 3.0
18/10:30am 17.9 17.2 16.4 91 0.9 N 15 24 8 13 1015.4 1015.3 3.0
18/10:09am 17.4 16.4 16.6 95 0.5 NNE 17 24 9 13 1015.6 1015.5 3.0
18/10:00am 17.1 16.4 16.5 96 0.4 NNE 15 24 8 13 1015.6 1015.5 3.0
18/09:45am 17.2 16.9 16.4 95 0.5 NNE 13 19 7 10 1015.8 1015.6 2.2
18/09:30am 17.1 16.7 16.1 94 0.6 N 13 19 7 10 1016.0 1015.8 1.8
18/09:28am 17.2 16.8 16.2 94 0.6 N 13 19 7 10 1016.1 1015.9 1.4
18/09:00am 17.5 18.0 16.5 94 0.6 NNE 9 15 5 8 1016.1 1015.9 35.8
18/08:30am 17.3 17.5 16.7 96 0.4 NE 11 15 6 8 1015.9 1015.7 35.8
18/08:00am 17.0 18.3 17.0 100 0.0 ENE 6 9 3 5 1016.1 1015.9 35.6
18/07:30am 17.0 17.7 17.0 100 0.0 ENE 9 11 5 6 1015.5 1015.4 35.6
18/07:04am 16.9 17.9 16.9 100 0.0 E 7 9 4 5 1015.1 1015.0 35.4
18/07:00am 16.9 17.9 16.9 100 0.0 ENE 7 9 4 5 1015.1 1015.0 35.4
18/06:30am 16.9 17.2 16.9 100 0.0 ENE 11 17 6 9 1014.9 1014.7 34.6
18/06:27am 16.9 17.2 16.9 100 0.0 E 11 17 6 9 1014.8 1014.6 34.4
18/06:25am 16.9 17.2 16.9 100 0.0 ENE 11 13 6 7 1014.8 1014.6 34.4
18/06:00am 16.9 17.5 16.9 100 0.0 NE 9 13 5 7 1014.7 1014.5 34.0
18/05:40am 17.0 17.7 17.0 100 0.0 ENE 9 15 5 8 1014.8 1014.6 33.4
18/05:30am 17.0 16.9 17.0 100 0.0 ENE 13 20 7 11 1014.8 1014.6 33.4
18/05:00am 16.8 17.4 16.8 100 0.0 ENE 9 13 5 7 1014.6 1014.4 32.8
18/04:52am 16.8 17.4 16.8 100 0.0 ENE 9 11 5 6 1014.7 1014.5 32.2
18/04:30am 16.8 18.0 16.8 100 0.0 NE 6 11 3 6 1014.7 1014.5 31.6
18/04:00am 16.8 18.7 16.8 100 0.0 ENE 2 6 1 3 1014.9 1014.7 25.2
18/03:30am 16.8 17.8 16.8 100 0.0 W 7 9 4 5 1015.3 1015.2 23.0
18/03:26am 16.8 17.8 16.8 100 0.0 W 7 11 4 6 1015.2 1015.1 22.6
18/03:08am 16.8 18.0 16.8 100 0.0 E 6 7 3 4 1015.1 1015.0 22.2
18/03:00am 16.8 17.8 16.8 100 0.0 E 7 9 4 5 1015.1 1015.0 22.0
18/02:42am 16.8 17.8 16.8 100 0.0 NE 7 9 4 5 1015.4 1015.3 20.4
18/02:30am 16.8 18.0 16.8 100 0.0 ENE 6 7 3 4 1015.5 1015.4 19.8
18/02:29am 16.8 18.0 16.8 100 0.0 ENE 6 7 3 4 1015.5 1015.4 19.8
18/02:05am 16.8 17.8 16.8 100 0.0 W 7 7 4 4 1015.9 1015.7 18.4
18/02:00am 16.9 17.9 16.9 100 0.0 WSW 7 7 4 4 1015.9 1015.7 17.8
18/01:30am 16.9 18.9 16.9 100 0.0 ESE 2 7 1 4 1016.0 1015.8 17.2
18/01:00am 17.2 17.2 17.2 100 0.0 NE 13 15 7 8 1016.1 1015.9 17.0
18/12:30am 17.1 17.1 17.1 100 0.0 ESE 13 17 7 9 1016.2 1016.0 16.8
18/12:24am 17.1 17.4 17.1 100 0.0 E 11 17 6 9 1016.6 1016.4 16.4
18/12:00am 17.1 18.4 17.1 100 0.0 NE 6 9 3 5 1017.3 1017.1 14.2
 
Date/Time
EST
Temp
°C
App
Temp
°C
Dew
Point
Rel
Hum
%
Delta-T
°C
Wind Press
QNH
hPa
Press
MSL
hPa
Rain
since 9 am
mm
Dir
 
Spd
km/h
Gust
km/h
Spd
kts
Gust
kts
17/11:46pm 17.1 18.2 17.1 100 0.0 NNE 7 9 4 5 1017.3 1017.1 13.2
17/11:30pm 17.2 17.9 17.0 99 0.1 NE 9 13 5 7 1017.2 1017.0 12.4
17/11:00pm 17.2 17.5 17.0 99 0.1 E 11 17 6 9 1017.2 1017.0 11.6
17/10:30pm 17.1 18.4 17.1 100 0.0 ESE 6 9 3 5 1018.0 1017.8 11.0
17/10:00pm 17.1 17.8 17.1 100 0.0 ESE 9 15 5 8 1017.9 1017.7 10.4
17/09:44pm 16.8 18.0 16.8 100 0.0 ENE 6 11 3 6 1018.0 1017.8 10.0
17/09:30pm 16.3 17.3 16.3 100 0.0 ESE 6 9 3 5 1018.0 1017.8 9.8
17/09:12pm 15.8 16.6 15.8 100 0.0 S 6 7 3 4 1018.1 1017.9 9.4
17/09:00pm 15.8 17.7 15.8 100 0.0 CALM 0 0 0 0 1018.1 1017.9 9.0
17/08:54pm 15.8 17.7 15.8 100 0.0 CALM 0 0 0 0 1018.1 1017.9 8.8
17/08:30pm 15.6 16.7 15.6 100 0.0 S 4 7 2 4 1017.9 1017.7 8.0
17/08:00pm 15.7 16.4 15.7 100 0.0 SSE 6 7 3 4 1017.9 1017.7 7.6
17/07:59pm 15.7 16.4 15.7 100 0.0 SSE 6 7 3 4 1017.9 1017.7 7.4
17/07:30pm 15.5 15.6 15.5 100 0.0 SSE 9 9 5 5 1017.9 1017.7 7.4
17/07:00pm 15.6 15.7 15.6 100 0.0 S 9 13 5 7 1018.1 1017.9 7.4
17/06:30pm 15.4 15.8 15.4 100 0.0 SSE 7 9 4 5 1017.9 1017.7 7.4
17/06:00pm 15.3 15.9 15.3 100 0.0 SE 6 9 3 5 1018.0 1017.8 7.2
17/05:54pm 15.3 15.7 15.3 100 0.0 SE 7 9 4 5 1018.0 1017.8 7.2
17/05:30pm 15.3 15.7 15.3 100 0.0 ESE 7 9 4 5 1017.9 1017.7 7.2
17/05:00pm 15.4 15.5 15.4 100 0.0 SSE 9 11 5 6 1018.0 1017.8 5.6
17/04:30pm 15.6 16.3 15.6 100 0.0 SSE 6 9 3 5 1018.1 1017.9 5.0
17/04:00pm 15.6 16.1 15.6 100 0.0 SSE 7 9 4 5 1018.5 1018.3 4.2
17/03:30pm 15.5 16.0 15.5 100 0.0 SE 7 11 4 6 1018.9 1018.7 3.6
17/03:00pm 15.4 15.9 15.1 98 0.2 SE 6 7 3 4 1019.3 1019.1 2.8
17/02:30pm 15.3 15.1 14.8 97 0.3 SE 9 13 5 7 1019.4 1019.2 1.8
17/02:00pm 15.5 15.4 15.0 97 0.3 ESE 9 11 5 6 1019.6 1019.4 1.0
17/01:30pm 15.2 14.9 14.4 95 0.5 SE 9 13 5 7 1020.0 1019.8 0.6
17/01:18pm 15.3 15.0 14.3 94 0.6 SSE 9 13 5 7 1020.3 1020.2 0.4
17/01:00pm 15.7 15.9 14.6 93 0.6 SE 7 9 4 5 1020.7 1020.6 0.4
17/12:30pm 16.0 16.4 13.7 86 1.3 SSE 4 7 2 4 1021.6 1021.5 0.4
17/12:29pm 16.1 16.5 13.8 86 1.3 SSE 4 6 2 3 1021.6 1021.5 0.4
17/12:00pm 16.2 16.5 13.5 84 1.5 SE 4 6 2 3 1022.2 1022.0 0.4
17/11:30am 16.2 16.0 13.1 82 1.7 NE 6 7 3 4 1022.8 1022.6 0.2
17/11:00am 16.4 16.2 13.5 83 1.6 NE 7 9 4 5 1023.1 1022.9 0.0
17/10:30am 16.6 16.2 12.9 79 2.1 ENE 7 13 4 7 1023.3 1023.1 0.0
17/10:00am 16.4 15.6 12.8 79 2.0 ENE 9 13 5 7 1023.7 1023.5 0.0
17/09:30am 16.3 15.8 12.8 80 2.0 ENE 7 11 4 6 1023.8 1023.6 0.0
17/09:00am 15.8 14.9 12.7 82 1.7 ENE 9 11 5 6 1024.0 1023.8 0.2
17/08:30am 15.6 16.0 12.4 81 1.8 NE 2 6 1 3 1024.1 1023.9 0.2
17/08:00am 15.4 16.2 12.7 84 1.5 CALM 0 0 0 0 1024.0 1023.8 0.2
17/07:30am 15.2 14.6 12.3 83 1.6 NE 7 9 4 5 1023.9 1023.7 0.0
17/07:00am 15.3 14.7 12.2 82 1.7 NE 7 9 4 5 1023.6 1023.4 0.0
17/06:30am 15.5 15.2 12.6 83 1.6 NE 6 9 3 5 1023.4 1023.2 0.0
17/06:00am 15.7 15.3 12.3 80 1.9 NNW 6 9 3 5 1023.0 1022.8 0.0
17/05:30am 15.6 16.4 12.4 81 1.8 CALM 0 0 0 0 1022.7 1022.5 0.0
17/05:00am 15.8 16.4 12.0 78 2.1 CALM 0 0 0 0 1022.3 1022.1 0.0
17/04:30am 16.1 16.5 11.3 73 2.6 CALM 0 0 0 0 1021.8 1021.7 0.0
17/04:00am 16.2 16.6 11.2 72 2.7 CALM 0 6 0 3 1021.5 1021.4 0.0
17/03:30am 16.6 16.8 10.5 67 3.3 CALM 0 0 0 0 1021.4 1021.3 0.0
17/03:00am 16.8 16.6 10.6 67 3.3 NW 2 6 1 3 1021.4 1021.3 0.0
17/02:30am 17.1 16.1 10.9 67 3.4 NW 7 9 4 5 1022.0 1021.9 0.0
17/02:00am 17.0 15.9 10.8 67 3.3 NNE 7 9 4 5 1022.4 1022.2 0.0
17/01:30am 16.3 15.1 11.5 73 2.6 NE 9 11 5 6 1022.3 1022.1 0.0
17/01:00am 16.8 15.4 10.9 68 3.2 SW 9 11 5 6 1022.6 1022.4 0.0
17/12:30am 16.7 16.3 11.0 69 3.1 SSE 4 11 2 6 1022.6 1022.4 0.0
17/12:00am 17.2 16.3 10.6 65 3.5 WNW 6 7 3 4 1023.0 1022.8 0.0
 
Date/Time
EST
Temp
°C
App
Temp
°C
Dew
Point
Rel
Hum
%
Delta-T
°C
Wind Press
QNH
hPa
Press
MSL
hPa
Rain
since 9 am
mm
Dir
 
Spd
km/h
Gust
km/h
Spd
kts
Gust
kts
16/11:30pm 17.3 15.8 10.4 64 3.7 NNE 9 9 5 5 1023.2 1023.0 0.0
16/11:00pm 18.2 16.6 10.1 59 4.3 NW 9 15 5 8 1023.8 1023.6 0.0
16/10:30pm 18.5 15.3 10.1 58 4.5 WNW 17 26 9 14 1024.1 1023.9 0.0
16/10:00pm 19.2 17.5 9.9 55 5.0 NW 9 11 5 6 1023.7 1023.5 0.0
16/09:30pm 19.3 17.0 10.3 56 4.9 WNW 13 17 7 9 1023.2 1023.0 0.0
16/09:00pm 19.8 16.5 9.7 52 5.4 NNW 17 24 9 13 1022.8 1022.6 0.0
16/08:30pm 19.8 17.8 10.0 53 5.3 NW 11 17 6 9 1022.6 1022.4 0.0
16/08:00pm 20.3 17.7 9.2 49 5.9 W 13 17 7 9 1022.6 1022.4 0.0
16/07:30pm 21.2 17.3 8.5 44 6.7 WNW 19 24 10 13 1022.4 1022.2 0.0
16/07:00pm 21.3 18.0 8.2 43 6.9 WNW 15 20 8 11 1022.0 1021.9 0.0
16/06:30pm 21.2 19.2 8.8 45 6.6 NW 9 13 5 7 1021.3 1021.2 0.0
16/06:00pm 22.3 19.2 8.8 42 7.2 WNW 15 19 8 10 1021.1 1021.0 0.0

Other Formats:

Comma delimited format used in spreadsheet applications
http://www.bom.gov.au/fwo/IDN60801/IDN60801.95896.axf

JavaScript Object Notation format (JSON) in row-major order
http://www.bom.gov.au/fwo/IDN60801/IDN60801.95896.json